createdAt,value
2017-12-15T00:01:41.595Z,2.30
2017-12-15T00:03:45.033Z,2.50
2017-12-15T00:05:49.247Z,2.20
2017-12-15T00:07:52.733Z,2.10
2017-12-15T00:09:56.188Z,2.00
2017-12-15T00:11:59.693Z,2.20
2017-12-15T00:14:03.145Z,2.17
2017-12-15T00:16:06.607Z,2.60
2017-12-15T00:18:10.063Z,2.60
2017-12-15T00:20:13.538Z,2.97
2017-12-15T00:22:17.774Z,2.80
2017-12-15T00:24:21.293Z,2.57
2017-12-15T00:26:24.763Z,2.27
2017-12-15T00:28:28.269Z,2.47
2017-12-15T00:30:31.710Z,2.07
2017-12-15T00:32:35.916Z,2.00
2017-12-15T00:34:39.366Z,1.93
2017-12-15T00:36:42.796Z,2.00
2017-12-15T00:38:46.255Z,2.07
2017-12-15T00:40:49.745Z,2.00
2017-12-15T00:42:53.163Z,1.80
2017-12-15T00:44:56.605Z,1.97
2017-12-15T00:47:00.045Z,2.00
2017-12-15T00:49:03.488Z,1.60
2017-12-15T00:51:06.945Z,1.70
2017-12-15T00:53:10.383Z,1.80
2017-12-15T00:55:13.894Z,1.80
2017-12-15T00:57:18.164Z,1.80
2017-12-15T00:59:21.616Z,1.87
2017-12-15T01:01:25.064Z,1.50
2017-12-15T01:03:28.511Z,1.73
2017-12-15T01:05:31.997Z,1.50
2017-12-15T01:07:35.409Z,1.63
2017-12-15T01:09:38.896Z,1.80
2017-12-15T01:11:42.323Z,1.67
2017-12-15T01:13:45.756Z,1.77
2017-12-15T01:15:49.248Z,1.90
2017-12-15T01:17:52.695Z,2.27
2017-12-15T01:19:57.886Z,1.97
2017-12-15T01:22:01.663Z,1.70
2017-12-15T01:24:05.852Z,1.63
2017-12-15T01:26:09.310Z,2.70
2017-12-15T01:28:12.729Z,2.13
2017-12-15T01:30:16.206Z,1.80
2017-12-15T01:32:19.653Z,1.70
2017-12-15T01:34:23.092Z,1.90
2017-12-15T01:36:26.565Z,2.13
2017-12-15T01:38:29.971Z,1.80
2017-12-15T01:40:33.417Z,1.90
2017-12-15T01:42:37.638Z,2.00
2017-12-15T01:44:41.078Z,2.03
2017-12-15T01:46:44.561Z,1.60
2017-12-15T01:48:48.015Z,2.43
2017-12-15T01:50:51.454Z,1.60
2017-12-15T01:52:54.875Z,1.90
2017-12-15T01:54:58.376Z,2.13
2017-12-15T01:57:02.624Z,1.83
2017-12-15T01:59:07.590Z,2.27
2017-12-15T02:01:11.044Z,1.90
2017-12-15T02:03:14.493Z,2.50
2017-12-15T02:05:18.686Z,2.27
2017-12-15T02:07:22.134Z,2.40
2017-12-15T02:09:26.307Z,2.43
2017-12-15T02:11:29.746Z,2.10
2017-12-15T02:13:33.161Z,2.33
2017-12-15T02:15:36.595Z,2.23
2017-12-15T02:17:40.110Z,1.83
2017-12-15T02:19:44.299Z,2.07
2017-12-15T02:21:47.749Z,2.03
2017-12-15T02:23:51.192Z,2.03
2017-12-15T02:25:54.623Z,1.90
2017-12-15T02:27:58.079Z,2.03
2017-12-15T02:30:02.280Z,3.33
2017-12-15T02:32:05.706Z,2.70
2017-12-15T02:34:09.192Z,3.00
2017-12-15T02:36:13.405Z,2.40
2017-12-15T02:38:17.656Z,2.77
2017-12-15T02:40:21.049Z,2.33
2017-12-15T02:42:24.460Z,2.47
2017-12-15T02:44:28.197Z,2.20
2017-12-15T02:46:32.389Z,2.70
2017-12-15T02:48:35.839Z,2.60
2017-12-15T02:50:39.271Z,2.70
2017-12-15T02:52:43.522Z,2.60
2017-12-15T02:54:47.003Z,2.80
2017-12-15T02:56:50.410Z,2.70
2017-12-15T02:58:54.663Z,3.10
2017-12-15T03:00:58.072Z,3.40
2017-12-15T03:03:01.503Z,2.90
2017-12-15T03:05:05.758Z,3.00
2017-12-15T03:07:09.195Z,2.97
2017-12-15T03:09:13.459Z,2.70
2017-12-15T03:11:16.936Z,2.83
2017-12-15T03:13:20.383Z,3.17
2017-12-15T03:15:24.621Z,2.60
2017-12-15T03:17:28.784Z,2.97
2017-12-15T03:19:32.199Z,3.10
2017-12-15T03:21:35.691Z,2.60
2017-12-15T03:23:39.127Z,2.97
2017-12-15T03:25:42.569Z,2.60
2017-12-15T03:27:46.019Z,2.93
2017-12-15T03:29:49.502Z,2.47
2017-12-15T03:31:53.688Z,2.87
2017-12-15T03:33:57.125Z,3.33
2017-12-15T03:36:00.577Z,2.40
2017-12-15T03:38:04.013Z,2.50
2017-12-15T03:40:07.480Z,2.80
2017-12-15T03:42:10.982Z,3.10
2017-12-15T03:44:15.153Z,2.90
2017-12-15T03:46:18.594Z,2.73
2017-12-15T03:48:22.762Z,2.50
2017-12-15T03:50:26.202Z,2.43
2017-12-15T03:52:29.706Z,3.20
2017-12-15T03:54:35.944Z,2.77
2017-12-15T03:58:49.573Z,2.90
2017-12-15T04:00:53.789Z,3.50
2017-12-15T04:02:58.033Z,3.20
2017-12-15T04:05:01.535Z,3.10
2017-12-15T04:07:04.977Z,2.73
2017-12-15T04:09:08.387Z,2.87
2017-12-15T04:11:11.835Z,3.30
2017-12-15T04:13:15.277Z,2.67
2017-12-15T04:15:18.721Z,2.80
2017-12-15T04:17:22.197Z,2.83
2017-12-15T04:19:26.309Z,2.73
2017-12-15T04:21:29.797Z,3.20
2017-12-15T04:23:33.261Z,3.50
2017-12-15T04:25:37.488Z,3.70
2017-12-15T04:27:40.941Z,3.53
2017-12-15T04:29:44.435Z,3.37
2017-12-15T04:31:48.652Z,3.50
2017-12-15T04:33:52.365Z,4.90
2017-12-15T04:35:55.803Z,4.10
2017-12-15T04:37:59.295Z,4.10
2017-12-15T04:40:03.589Z,4.43
2017-12-15T04:42:07.081Z,4.03
2017-12-15T04:44:10.607Z,4.20
2017-12-15T04:46:14.902Z,4.53
2017-12-15T04:48:18.419Z,4.00
2017-12-15T04:50:21.914Z,4.50
2017-12-15T04:52:25.365Z,5.10
2017-12-15T04:54:29.590Z,4.60
2017-12-15T04:56:33.038Z,4.90
2017-12-15T04:58:37.265Z,7.87
2017-12-15T05:00:41.565Z,8.23
2017-12-15T05:02:45.047Z,4.70
2017-12-15T05:04:48.539Z,3.13
2017-12-15T05:06:51.978Z,4.60
2017-12-15T05:08:55.423Z,3.97
2017-12-15T05:10:58.936Z,4.03
2017-12-15T05:13:02.400Z,5.23
2017-12-15T05:15:05.946Z,4.50
2017-12-15T05:17:09.923Z,3.30
2017-12-15T05:19:13.421Z,3.90
2017-12-15T05:21:16.887Z,2.80
2017-12-15T05:23:21.157Z,3.50
2017-12-15T05:25:24.780Z,3.27
2017-12-15T05:27:28.266Z,3.20
2017-12-15T05:29:31.821Z,4.00
2017-12-15T05:31:35.331Z,2.53
2017-12-15T05:33:39.648Z,3.17
2017-12-15T05:35:43.890Z,3.23
2017-12-15T05:37:47.350Z,2.97
2017-12-15T05:39:50.779Z,3.90
2017-12-15T05:41:54.704Z,2.97
2017-12-15T05:43:58.158Z,2.70
2017-12-15T05:46:02.621Z,3.30
2017-12-15T05:48:06.156Z,3.43
2017-12-15T05:50:09.675Z,3.17
2017-12-15T05:52:13.164Z,3.13
2017-12-15T05:54:16.598Z,3.03
2017-12-15T05:56:20.095Z,3.70
2017-12-15T05:58:23.529Z,3.13
2017-12-15T06:00:26.968Z,2.97
2017-12-15T06:02:30.451Z,3.10
2017-12-15T06:04:33.908Z,3.43
2017-12-15T06:06:37.349Z,2.80
2017-12-15T06:08:40.800Z,2.83
2017-12-15T06:10:44.243Z,2.40
2017-12-15T06:12:47.731Z,3.20
2017-12-15T06:14:51.173Z,2.93
2017-12-15T06:16:55.277Z,3.07
2017-12-15T06:18:58.689Z,2.70
2017-12-15T06:21:02.874Z,3.27
2017-12-15T06:23:06.318Z,3.00
2017-12-15T06:25:09.723Z,2.37
2017-12-15T06:27:13.178Z,2.97
2017-12-15T06:29:16.598Z,2.97
2017-12-15T06:31:20.078Z,2.23
2017-12-15T06:33:23.587Z,3.80
2017-12-15T06:35:27.066Z,2.73
2017-12-15T06:37:31.282Z,2.80
2017-12-15T06:39:34.913Z,4.50
2017-12-15T06:41:38.379Z,3.83
2017-12-15T06:43:41.901Z,3.70
2017-12-15T06:45:46.157Z,2.67
2017-12-15T06:47:49.680Z,4.70
2017-12-15T06:49:53.139Z,10.97
2017-12-15T06:51:56.775Z,5.53
2017-12-15T06:54:00.321Z,10.13
2017-12-15T06:56:03.787Z,7.00
2017-12-15T06:58:07.330Z,3.50
2017-12-15T07:00:10.779Z,6.47
2017-12-15T07:02:14.260Z,4.00
2017-12-15T07:04:17.755Z,4.50
2017-12-15T07:06:21.252Z,3.70
2017-12-15T07:08:24.812Z,3.10
2017-12-15T07:10:29.036Z,2.80
2017-12-15T07:12:32.494Z,2.80
2017-12-15T07:14:36.019Z,7.57
2017-12-15T07:16:40.251Z,5.30
2017-12-15T07:18:43.773Z,4.00
2017-12-15T07:20:47.313Z,3.03
2017-12-15T07:22:51.529Z,3.17
2017-12-15T07:24:55.024Z,3.00
2017-12-15T07:26:59.239Z,2.80
2017-12-15T07:29:03.660Z,3.17
2017-12-15T07:31:07.132Z,3.10
2017-12-15T07:33:11.402Z,3.33
2017-12-15T07:35:14.956Z,2.73
2017-12-15T07:37:19.270Z,2.67
2017-12-15T07:39:23.487Z,3.00
2017-12-15T07:41:28.656Z,3.83
2017-12-15T07:43:32.156Z,3.10
2017-12-15T07:45:36.913Z,3.10
2017-12-15T07:47:40.344Z,3.00
2017-12-15T07:49:44.222Z,3.80
2017-12-15T07:51:47.782Z,2.53
2017-12-15T07:53:51.298Z,2.87
2017-12-15T07:55:54.780Z,2.17
2017-12-15T07:57:58.220Z,2.07
2017-12-15T08:00:02.445Z,2.47
2017-12-15T08:02:06.119Z,2.80
2017-12-15T08:04:10.459Z,2.50
2017-12-15T08:06:14.707Z,2.80
2017-12-15T08:08:19.884Z,2.20
2017-12-15T08:10:25.739Z,2.20
2017-12-15T08:12:31.244Z,2.20
2017-12-15T08:14:36.212Z,2.03
2017-12-15T08:16:43.926Z,2.00
2017-12-15T08:18:47.507Z,2.10
2017-12-15T08:20:51.754Z,1.73
2017-12-15T08:22:55.237Z,5.40
2017-12-15T08:24:58.664Z,1.97
2017-12-15T08:27:02.175Z,1.80
2017-12-15T08:29:05.696Z,1.70
2017-12-15T08:31:10.039Z,1.80
2017-12-15T08:33:13.504Z,1.73
2017-12-15T08:35:17.766Z,1.70
2017-12-15T08:37:21.248Z,1.60
2017-12-15T08:39:24.692Z,1.70
2017-12-15T08:41:28.149Z,1.67
2017-12-15T08:43:31.649Z,1.93
2017-12-15T08:45:35.093Z,1.93
2017-12-15T08:47:38.615Z,1.77
2017-12-15T08:49:43.060Z,1.50
2017-12-15T08:51:46.578Z,1.47
2017-12-15T08:53:50.814Z,1.97
2017-12-15T08:55:54.267Z,1.60
2017-12-15T08:57:58.500Z,1.73
2017-12-15T09:00:02.782Z,1.50
2017-12-15T09:02:07.016Z,1.53
2017-12-15T09:04:16.852Z,1.53
2017-12-15T09:06:20.294Z,2.07
2017-12-15T09:08:23.805Z,2.40
2017-12-15T09:10:27.232Z,3.97
2017-12-15T09:12:30.681Z,2.03
2017-12-15T09:14:34.177Z,1.77
2017-12-15T09:16:37.661Z,1.70
2017-12-15T09:18:42.320Z,1.83
2017-12-15T09:20:46.631Z,1.67
2017-12-15T09:22:50.109Z,1.63
2017-12-15T09:24:53.628Z,2.17
2017-12-15T09:26:57.046Z,1.80
2017-12-15T09:29:00.514Z,1.50
2017-12-15T09:31:03.966Z,2.33
2017-12-15T09:33:07.600Z,1.67
2017-12-15T09:35:11.513Z,1.53
2017-12-15T09:37:15.407Z,1.60
2017-12-15T09:39:18.935Z,1.43
2017-12-15T09:41:22.761Z,1.73
2017-12-15T09:43:27.075Z,1.80
2017-12-15T09:45:31.373Z,1.90
2017-12-15T09:47:34.985Z,1.87
2017-12-15T09:49:39.290Z,2.00
2017-12-15T09:51:43.604Z,2.43
2017-12-15T09:53:47.816Z,2.77
2017-12-15T09:55:52.067Z,1.60
2017-12-15T09:57:55.505Z,2.00
2017-12-15T09:59:58.965Z,2.20
2017-12-15T10:02:02.509Z,1.80
2017-12-15T10:04:06.734Z,2.37
2017-12-15T10:06:10.457Z,2.10
2017-12-15T10:08:14.054Z,1.73
2017-12-15T10:10:17.587Z,2.37
2017-12-15T10:12:21.260Z,1.70
2017-12-15T10:14:24.728Z,2.13
2017-12-15T10:16:28.279Z,1.90
2017-12-15T10:18:31.876Z,1.97
2017-12-15T10:20:35.373Z,2.30
2017-12-15T10:22:39.637Z,2.17
2017-12-15T10:24:43.884Z,1.80
2017-12-15T10:26:52.624Z,1.90
2017-12-15T10:28:56.968Z,1.50
2017-12-15T10:31:01.150Z,1.70
2017-12-15T10:33:04.625Z,1.63
2017-12-15T10:35:08.110Z,1.80
2017-12-15T10:37:11.576Z,1.83
2017-12-15T10:39:15.056Z,1.50
2017-12-15T10:41:18.936Z,1.70
2017-12-15T10:43:22.474Z,2.70
2017-12-15T10:45:25.964Z,1.80
2017-12-15T10:47:29.370Z,1.47
2017-12-15T10:49:32.847Z,1.63
2017-12-15T10:51:36.286Z,1.77
2017-12-15T10:53:39.697Z,1.80
2017-12-15T10:55:43.143Z,1.30
2017-12-15T10:57:46.592Z,1.40
2017-12-15T10:59:50.099Z,1.33
2017-12-15T11:01:53.518Z,1.40
2017-12-15T11:03:56.957Z,1.50
2017-12-15T11:06:00.407Z,1.63
2017-12-15T11:08:03.872Z,1.70
2017-12-15T11:10:08.082Z,1.60
2017-12-15T11:12:12.332Z,1.70
2017-12-15T11:14:15.735Z,1.60
2017-12-15T11:16:19.208Z,1.83
2017-12-15T11:18:22.673Z,1.40
2017-12-15T11:20:26.110Z,1.37
2017-12-15T11:22:29.596Z,1.70
2017-12-15T11:24:33.053Z,1.50
2017-12-15T11:26:36.552Z,1.50
2017-12-15T11:28:40.799Z,1.50
2017-12-15T11:30:44.310Z,1.50
2017-12-15T11:32:47.787Z,1.30
2017-12-15T11:34:51.272Z,1.50
2017-12-15T11:36:54.710Z,1.50
2017-12-15T11:38:58.290Z,1.70
2017-12-15T11:41:01.746Z,2.90
2017-12-15T11:43:05.257Z,2.30
2017-12-15T11:45:08.720Z,5.20
2017-12-15T11:47:12.268Z,5.03
2017-12-15T11:49:15.761Z,3.80
2017-12-15T11:51:21.416Z,8.00
2017-12-15T11:53:25.296Z,3.53
2017-12-15T11:55:28.749Z,2.80
2017-12-15T11:57:32.957Z,1.70
2017-12-15T11:59:36.422Z,1.90
2017-12-15T12:01:39.909Z,1.40
2017-12-15T12:03:43.364Z,1.30
2017-12-15T12:05:46.791Z,1.60
2017-12-15T12:07:50.230Z,1.77
2017-12-15T12:09:54.472Z,2.00
2017-12-15T12:11:59.451Z,1.97
2017-12-15T12:14:04.372Z,1.60
2017-12-15T12:16:07.852Z,2.10
2017-12-15T12:18:12.166Z,2.30
2017-12-15T12:20:15.681Z,1.80
2017-12-15T12:22:19.960Z,1.93
2017-12-15T12:24:23.450Z,2.20
2017-12-15T12:26:26.879Z,2.30
2017-12-15T12:28:30.403Z,2.70
2017-12-15T12:30:33.877Z,2.20
2017-12-15T12:32:38.153Z,2.37
2017-12-15T12:34:41.623Z,2.90
2017-12-15T12:36:45.682Z,2.53
2017-12-15T12:38:50.474Z,2.60
2017-12-15T12:40:54.205Z,2.63
2017-12-15T12:42:57.619Z,2.87
2017-12-15T12:45:01.098Z,3.10
2017-12-15T12:47:04.511Z,3.30
2017-12-15T12:49:07.951Z,3.10
2017-12-15T12:51:11.406Z,2.63
2017-12-15T12:53:14.828Z,2.93
2017-12-15T12:55:18.272Z,4.50
2017-12-15T12:57:21.716Z,6.50
2017-12-15T12:59:25.159Z,4.37
2017-12-15T13:01:28.618Z,4.53
2017-12-15T13:03:32.048Z,3.17
2017-12-15T13:05:35.514Z,5.07
2017-12-15T13:07:39.756Z,4.00
2017-12-15T13:09:43.985Z,4.00
2017-12-15T13:11:47.464Z,3.10
2017-12-15T13:13:53.330Z,2.50
2017-12-15T13:15:57.701Z,2.40
2017-12-15T13:18:01.945Z,2.10
2017-12-15T13:20:05.407Z,2.27
2017-12-15T13:22:08.863Z,1.80
2017-12-15T13:24:13.950Z,1.73
2017-12-15T13:26:17.772Z,2.23
2017-12-15T13:28:22.261Z,2.50
2017-12-15T13:30:26.605Z,2.67
2017-12-15T13:32:30.026Z,2.10
2017-12-15T13:34:34.234Z,2.60
2017-12-15T13:36:38.420Z,2.80
2017-12-15T13:38:42.669Z,2.30
2017-12-15T13:40:46.077Z,3.00
2017-12-15T13:42:49.527Z,2.70
2017-12-15T13:44:53.806Z,2.53
2017-12-15T13:46:57.245Z,2.80
2017-12-15T13:49:00.709Z,2.50
2017-12-15T13:51:04.177Z,2.50
2017-12-15T13:53:08.452Z,3.53
2017-12-15T13:55:13.921Z,2.87
2017-12-15T13:57:17.950Z,2.50
2017-12-15T13:59:21.532Z,2.47
2017-12-15T14:01:25.356Z,2.90
2017-12-15T14:03:29.125Z,3.40
2017-12-15T14:05:33.429Z,5.47
2017-12-15T14:07:36.989Z,4.47
2017-12-15T14:09:42.125Z,3.90
2017-12-15T14:11:48.733Z,3.13
2017-12-15T14:13:52.220Z,2.97
2017-12-15T14:15:56.691Z,3.40
2017-12-15T14:18:00.131Z,3.60
2017-12-15T14:20:04.102Z,3.57
2017-12-15T14:22:08.835Z,4.30
2017-12-15T14:24:13.396Z,3.30
2017-12-15T14:26:16.876Z,2.80
2017-12-15T14:28:21.291Z,2.23
2017-12-15T14:30:26.182Z,2.47
2017-12-15T14:32:31.061Z,2.63
2017-12-15T14:34:34.838Z,3.40
2017-12-15T14:36:38.439Z,3.03
2017-12-15T14:38:44.428Z,3.13
2017-12-15T14:40:48.527Z,2.97
2017-12-15T14:42:52.221Z,3.47
2017-12-15T14:44:57.134Z,3.37
2017-12-15T14:47:01.929Z,3.33
2017-12-15T14:49:07.518Z,3.40
2017-12-15T14:51:11.315Z,2.67
2017-12-15T14:53:14.795Z,3.30
2017-12-15T14:55:18.286Z,5.40
2017-12-15T14:57:22.761Z,5.47
2017-12-15T14:59:26.208Z,4.63
2017-12-15T15:01:29.626Z,3.80
2017-12-15T15:03:33.103Z,3.60
2017-12-15T15:05:36.530Z,3.87
2017-12-15T15:07:40.643Z,3.93
2017-12-15T15:09:45.005Z,3.90
2017-12-15T15:11:49.769Z,3.40
2017-12-15T15:13:54.158Z,4.47
2017-12-15T15:15:58.602Z,5.60
2017-12-15T15:18:02.846Z,5.83
2017-12-15T15:20:07.057Z,3.63
2017-12-15T15:22:12.520Z,4.10
2017-12-15T15:24:17.504Z,3.60
2017-12-15T15:26:21.295Z,3.60
2017-12-15T15:28:25.374Z,3.37
2017-12-15T15:30:29.107Z,4.27
2017-12-15T15:32:32.572Z,4.63
2017-12-15T15:34:36.097Z,5.63
2017-12-15T15:36:39.559Z,5.87
2017-12-15T15:38:43.636Z,5.53
2017-12-15T15:40:48.579Z,6.00
2017-12-15T15:42:52.313Z,6.97
2017-12-15T15:44:57.490Z,7.90
2017-12-15T15:47:02.060Z,6.13
2017-12-15T15:49:05.708Z,5.93
2017-12-15T15:51:09.323Z,6.13
2017-12-15T15:53:12.903Z,6.03
2017-12-15T15:55:17.227Z,7.17
2017-12-15T15:57:21.016Z,7.30
2017-12-15T15:59:25.344Z,8.13
2017-12-15T16:01:29.972Z,5.87
2017-12-15T16:03:34.386Z,8.00
2017-12-15T16:05:39.586Z,5.37
2017-12-15T16:07:43.434Z,4.50
2017-12-15T16:09:46.903Z,5.57
2017-12-15T16:11:50.479Z,4.60
2017-12-15T16:13:53.936Z,5.20
2017-12-15T16:15:57.475Z,4.23
2017-12-15T16:18:00.963Z,5.03
2017-12-15T16:20:04.374Z,17.87
2017-12-15T16:22:07.902Z,20.27
2017-12-15T16:24:11.378Z,20.23
2017-12-15T16:26:15.702Z,15.17
2017-12-15T16:28:19.211Z,15.50
2017-12-15T16:30:22.667Z,13.43
2017-12-15T16:32:26.933Z,13.13
2017-12-15T16:34:30.386Z,12.73
2017-12-15T16:36:33.913Z,11.70
2017-12-15T16:38:37.364Z,12.87
2017-12-15T16:40:40.818Z,8.90
2017-12-15T16:42:44.343Z,8.60
2017-12-15T16:44:48.579Z,9.47
2017-12-15T16:46:52.200Z,6.93
2017-12-15T16:48:55.724Z,8.30
2017-12-15T16:51:00.078Z,8.33
2017-12-15T16:53:03.586Z,7.10
2017-12-15T16:55:07.075Z,8.33
2017-12-15T16:57:11.237Z,8.37
2017-12-15T16:59:14.818Z,9.17
2017-12-15T17:01:19.617Z,7.60
2017-12-15T17:03:24.406Z,6.67
2017-12-15T17:05:27.847Z,6.93
2017-12-15T17:07:31.336Z,6.57
2017-12-15T17:09:34.811Z,6.30
2017-12-15T17:11:38.322Z,5.40
2017-12-15T17:13:42.587Z,5.83
2017-12-15T17:15:46.855Z,6.03
2017-12-15T17:17:50.350Z,5.87
2017-12-15T17:19:53.790Z,6.00
2017-12-15T17:21:57.229Z,5.50
2017-12-15T17:24:00.756Z,4.80
2017-12-15T17:26:04.235Z,5.83
2017-12-15T17:28:07.808Z,5.90
2017-12-15T17:30:11.282Z,6.00
2017-12-15T17:32:15.580Z,5.47
2017-12-15T17:34:19.860Z,8.27
2017-12-15T17:36:23.342Z,9.70
2017-12-15T17:38:26.869Z,9.20
2017-12-15T17:40:30.369Z,10.13
2017-12-15T17:42:35.946Z,8.60
2017-12-15T17:44:40.219Z,8.57
2017-12-15T17:46:43.740Z,7.77
2017-12-15T17:48:48.308Z,9.23
2017-12-15T17:50:52.712Z,7.40
2017-12-15T17:52:56.169Z,8.40
2017-12-15T17:54:59.688Z,9.70
2017-12-15T17:57:03.198Z,7.90
2017-12-15T17:59:06.844Z,9.90
2017-12-15T18:01:10.317Z,8.90
2017-12-15T18:03:13.761Z,8.00
2017-12-15T18:05:17.207Z,9.37
2017-12-15T18:07:20.682Z,9.30
2017-12-15T18:09:24.145Z,16.07
2017-12-15T18:11:28.450Z,10.60
2017-12-15T18:13:32.663Z,11.67
2017-12-15T18:15:36.133Z,11.77
2017-12-15T18:17:40.372Z,12.10
2017-12-15T18:19:44.645Z,13.07
2017-12-15T18:21:48.095Z,10.70
2017-12-15T18:23:52.332Z,12.83
2017-12-15T18:25:55.819Z,12.40
2017-12-15T18:27:59.259Z,12.03
2017-12-15T18:30:03.530Z,12.13
2017-12-15T18:32:07.030Z,12.07
2017-12-15T18:34:10.499Z,12.00
2017-12-15T18:36:14.739Z,13.60
2017-12-15T18:38:19.670Z,15.10
2017-12-15T18:40:24.040Z,16.53
2017-12-15T18:42:29.185Z,19.03
2017-12-15T18:44:32.946Z,16.00
2017-12-15T18:46:36.460Z,17.00
2017-12-15T18:48:39.948Z,16.70
2017-12-15T18:50:43.402Z,14.50
2017-12-15T18:52:46.893Z,9.57
2017-12-15T18:54:50.350Z,10.13
2017-12-15T18:56:54.607Z,6.67
2017-12-15T18:58:58.143Z,6.53
2017-12-15T19:01:01.611Z,7.37
2017-12-15T19:03:05.127Z,10.77
2017-12-15T19:05:09.420Z,8.03
2017-12-15T19:07:12.924Z,8.90
2017-12-15T19:09:16.382Z,7.70
2017-12-15T19:11:19.893Z,6.80
2017-12-15T19:13:23.426Z,6.70
2017-12-15T19:15:26.873Z,5.53
2017-12-15T19:17:30.363Z,4.90
2017-12-15T19:19:33.804Z,5.60
2017-12-15T19:21:37.272Z,4.67
2017-12-15T19:23:40.770Z,4.83
2017-12-15T19:25:44.266Z,5.43
2017-12-15T19:27:47.785Z,5.20
2017-12-15T19:29:52.016Z,5.37
2017-12-15T19:31:55.982Z,5.80
2017-12-15T19:33:59.483Z,6.10
2017-12-15T19:36:02.923Z,5.30
2017-12-15T19:38:07.132Z,5.30
2017-12-15T19:40:10.625Z,5.73
2017-12-15T19:42:14.126Z,5.70
2017-12-15T19:44:17.605Z,5.50
2017-12-15T19:46:21.120Z,5.63
2017-12-15T19:48:24.553Z,6.50
2017-12-15T19:50:28.742Z,5.93
2017-12-15T19:52:35.107Z,5.87
2017-12-15T19:54:38.639Z,6.80
2017-12-15T19:56:42.130Z,7.67
2017-12-15T19:58:45.629Z,6.40
2017-12-15T20:00:49.205Z,7.10
2017-12-15T20:02:52.688Z,5.93
2017-12-15T20:04:56.650Z,6.17
2017-12-15T20:07:00.118Z,4.83
2017-12-15T20:09:03.580Z,5.00
2017-12-15T20:11:08.002Z,7.40
2017-12-15T20:13:11.493Z,7.37
2017-12-15T20:15:15.026Z,8.30
2017-12-15T20:17:18.511Z,9.47
2017-12-15T20:19:22.027Z,9.80
2017-12-15T20:21:25.559Z,17.90
2017-12-15T20:23:29.010Z,16.03
2017-12-15T20:25:33.302Z,17.20
2017-12-15T20:27:36.750Z,18.73
2017-12-15T20:29:40.221Z,18.10
2017-12-15T20:31:43.709Z,15.30
2017-12-15T20:33:47.170Z,16.50
2017-12-15T20:35:50.745Z,16.60
2017-12-15T20:37:54.972Z,20.57
2017-12-15T20:39:58.483Z,16.13
2017-12-15T20:42:02.008Z,15.70
2017-12-15T20:44:05.512Z,22.27
2017-12-15T20:46:09.783Z,18.30
2017-12-15T20:48:14.052Z,18.77
2017-12-15T20:50:17.520Z,20.67
2017-12-15T20:52:21.022Z,20.00
2017-12-15T20:54:24.568Z,22.10
2017-12-15T20:56:28.009Z,16.90
2017-12-15T20:58:32.240Z,18.70
2017-12-15T21:00:35.718Z,16.23
2017-12-15T21:02:40.014Z,17.77
2017-12-15T21:04:44.264Z,17.50
2017-12-15T21:06:47.762Z,16.80
2017-12-15T21:08:51.262Z,16.60
2017-12-15T21:10:54.787Z,17.07
2017-12-15T21:12:59.130Z,17.27
2017-12-15T21:15:03.360Z,17.97
2017-12-15T21:17:06.902Z,16.40
2017-12-15T21:19:10.956Z,14.23
2017-12-15T21:21:16.027Z,16.90
2017-12-15T21:23:19.717Z,15.63
2017-12-15T21:25:24.645Z,14.50
2017-12-15T21:27:28.339Z,13.83
2017-12-15T21:29:31.941Z,11.63
2017-12-15T21:31:37.215Z,13.60
2017-12-15T21:33:41.397Z,15.37
2017-12-15T21:35:44.954Z,16.50
2017-12-15T21:37:48.420Z,13.77
2017-12-15T21:39:52.668Z,18.73
2017-12-15T21:41:56.898Z,18.20
2017-12-15T21:44:00.398Z,16.97
2017-12-15T21:46:03.890Z,13.93
2017-12-15T21:48:07.460Z,11.80
2017-12-15T21:50:12.185Z,13.07
2017-12-15T21:52:15.716Z,13.97
2017-12-15T21:54:19.196Z,15.80
2017-12-15T21:56:22.782Z,14.83
2017-12-15T21:58:26.258Z,15.20
2017-12-15T22:00:29.748Z,15.53
2017-12-15T22:02:33.216Z,14.57
2017-12-15T22:04:36.703Z,11.20
2017-12-15T22:06:40.177Z,9.20
2017-12-15T22:08:43.620Z,7.57
2017-12-15T22:10:47.869Z,6.83
2017-12-15T22:12:51.325Z,6.40
2017-12-15T22:14:55.603Z,6.10
2017-12-15T22:16:59.055Z,5.90
2017-12-15T22:19:02.505Z,6.00
2017-12-15T22:21:05.978Z,4.57
2017-12-15T22:23:09.419Z,5.70
2017-12-15T22:25:13.725Z,4.70
2017-12-15T22:27:17.164Z,4.80
2017-12-15T22:29:20.584Z,4.43
2017-12-15T22:31:24.073Z,4.00
2017-12-15T22:33:27.553Z,4.40
2017-12-15T22:35:31.190Z,4.40
2017-12-15T22:37:35.468Z,3.90
2017-12-15T22:39:38.895Z,3.90
2017-12-15T22:41:42.407Z,3.93
2017-12-15T22:43:45.842Z,4.63
2017-12-15T22:45:49.313Z,4.00
2017-12-15T22:47:53.573Z,4.00
2017-12-15T22:49:57.060Z,3.20
2017-12-15T22:52:00.538Z,4.27
2017-12-15T22:54:04.028Z,3.97
2017-12-15T22:56:07.500Z,3.27
2017-12-15T22:58:11.765Z,3.67
2017-12-15T23:00:15.233Z,3.23
2017-12-15T23:02:18.721Z,2.73
2017-12-15T23:04:22.159Z,3.70
2017-12-15T23:06:25.634Z,2.83
2017-12-15T23:08:29.129Z,2.90
2017-12-15T23:10:32.567Z,2.93
2017-12-15T23:12:36.121Z,2.83
2017-12-15T23:14:39.538Z,2.53
2017-12-15T23:16:43.002Z,2.83
2017-12-15T23:18:46.473Z,2.67
2017-12-15T23:20:49.935Z,2.80
2017-12-15T23:22:53.395Z,2.70
2017-12-15T23:24:56.810Z,2.37
2017-12-15T23:27:00.218Z,2.50
2017-12-15T23:29:04.463Z,3.00
2017-12-15T23:31:08.645Z,2.63
2017-12-15T23:33:12.935Z,3.07
2017-12-15T23:35:16.385Z,2.70
2017-12-15T23:37:19.827Z,2.90
2017-12-15T23:39:23.342Z,3.33
2017-12-15T23:41:26.780Z,2.60
2017-12-15T23:43:30.258Z,2.80
2017-12-15T23:45:33.705Z,2.40
2017-12-15T23:47:37.930Z,3.00
2017-12-15T23:49:41.517Z,3.20
2017-12-15T23:51:45.731Z,3.00
2017-12-15T23:53:50.023Z,3.80
2017-12-15T23:56:05.287Z,3.67
2017-12-15T23:58:08.706Z,2.90
